createdAt,value
2023-02-22T00:04:08.960Z,8.70
2023-02-22T00:09:00.041Z,8.70
2023-02-22T00:13:50.756Z,8.50
2023-02-22T00:18:42.158Z,8.50
2023-02-22T00:23:33.291Z,8.60
2023-02-22T00:28:24.283Z,8.60
2023-02-22T00:33:17.534Z,8.50
2023-02-22T00:38:08.688Z,8.50
2023-02-22T00:42:59.407Z,8.40
2023-02-22T00:47:50.954Z,8.40
2023-02-22T00:52:41.599Z,8.40
2023-02-22T00:57:32.946Z,8.20
2023-02-22T01:02:24.071Z,8.40
2023-02-22T01:07:15.069Z,8.40
2023-02-22T01:12:05.806Z,8.30
2023-02-22T01:16:57.271Z,8.40
2023-02-22T01:21:48.462Z,8.40
2023-02-22T01:26:39.037Z,8.30
2023-02-22T01:31:30.074Z,8.20
2023-02-22T01:36:21.455Z,8.20
2023-02-22T01:41:12.632Z,8.20
2023-02-22T01:46:03.564Z,8.20
2023-02-22T01:50:54.624Z,8.20
2023-02-22T01:55:45.747Z,8.10
2023-02-22T02:00:36.859Z,8.00
2023-02-22T02:05:31.045Z,8.00
2023-02-22T02:10:22.109Z,8.00
2023-02-22T02:15:12.828Z,8.00
2023-02-22T02:20:04.153Z,7.90
2023-02-22T02:24:54.890Z,7.90
2023-02-22T02:29:46.286Z,7.90
2023-02-22T02:34:37.326Z,7.90
2023-02-22T02:39:28.449Z,7.90
2023-02-22T02:44:19.150Z,7.90
2023-02-22T02:49:10.518Z,7.90
2023-02-22T02:54:01.265Z,7.80
2023-02-22T02:58:52.645Z,7.80
2023-02-22T03:03:43.649Z,7.80
2023-02-22T03:08:34.992Z,7.80
2023-02-22T03:13:25.902Z,7.70
2023-02-22T03:18:16.621Z,7.70
2023-02-22T03:23:07.999Z,7.70
2023-02-22T03:27:59.145Z,7.60
2023-02-22T03:32:50.123Z,7.50
2023-02-22T03:37:41.204Z,7.40
2023-02-22T03:42:36.748Z,7.30
2023-02-22T03:47:27.850Z,7.30
2023-02-22T03:52:18.915Z,7.30
2023-02-22T03:57:09.947Z,7.00
2023-02-22T04:02:01.036Z,7.00
2023-02-22T04:06:51.766Z,7.00
2023-02-22T04:11:43.164Z,7.00
2023-02-22T04:16:34.261Z,6.90
2023-02-22T04:21:25.278Z,6.80
2023-02-22T04:26:16.047Z,6.70
2023-02-22T04:31:07.497Z,6.80
2023-02-22T04:35:58.450Z,6.70
2023-02-22T04:40:49.536Z,6.70
2023-02-22T04:45:40.589Z,6.60
2023-02-22T04:50:31.664Z,6.60
2023-02-22T04:55:22.403Z,6.50
2023-02-22T05:00:13.823Z,6.50
2023-02-22T05:05:04.937Z,6.50
2023-02-22T05:09:55.846Z,6.50
2023-02-22T05:14:46.957Z,6.40
2023-02-22T05:19:38.018Z,6.60
2023-02-22T05:24:29.066Z,6.40
2023-02-22T05:29:20.150Z,6.50
2023-02-22T05:34:11.200Z,6.40
2023-02-22T05:39:02.298Z,6.50
2023-02-22T05:43:53.019Z,6.40
2023-02-22T05:48:44.398Z,6.30
2023-02-22T05:53:35.457Z,6.20
2023-02-22T05:58:26.521Z,6.20
2023-02-22T06:03:17.484Z,6.20
2023-02-22T06:08:08.676Z,6.20
2023-02-22T06:12:59.719Z,6.20
2023-02-22T06:17:50.879Z,6.20
2023-02-22T06:22:41.549Z,6.10
2023-02-22T06:27:32.889Z,6.10
2023-02-22T06:32:23.996Z,6.00
2023-02-22T06:37:15.049Z,5.90
2023-02-22T06:42:06.188Z,5.90
2023-02-22T06:46:57.350Z,6.00
2023-02-22T06:51:48.293Z,5.90
2023-02-22T06:56:39.273Z,5.90
2023-02-22T07:01:30.018Z,5.90
2023-02-22T07:06:21.084Z,5.80
2023-02-22T07:11:12.189Z,5.80
2023-02-22T07:16:03.267Z,6.00
2023-02-22T07:20:54.593Z,6.10
2023-02-22T07:25:45.634Z,6.10
2023-02-22T07:30:36.777Z,6.00
2023-02-22T07:35:27.927Z,6.10
2023-02-22T07:40:18.815Z,5.80
2023-02-22T07:45:09.876Z,5.80
2023-02-22T07:50:01.342Z,5.90
2023-02-22T07:54:52.014Z,6.00
2023-02-22T07:59:43.068Z,6.00
2023-02-22T08:04:33.835Z,5.90
2023-02-22T08:09:25.267Z,6.10
2023-02-22T08:14:15.992Z,6.10
2023-02-22T08:19:07.026Z,6.30
2023-02-22T08:23:58.077Z,6.20
2023-02-22T08:28:49.423Z,6.20
2023-02-22T08:33:40.240Z,6.20
2023-02-22T08:38:31.263Z,6.50
2023-02-22T08:43:22.320Z,6.60
2023-02-22T08:48:13.731Z,6.60
2023-02-22T08:53:04.978Z,6.70
2023-02-22T08:57:56.010Z,6.70
2023-02-22T09:02:46.961Z,7.20
2023-02-22T09:07:38.037Z,7.20
2023-02-22T09:12:29.104Z,7.40
2023-02-22T09:17:20.157Z,7.40
2023-02-22T09:22:10.882Z,7.50
2023-02-22T09:27:02.235Z,7.70
2023-02-22T09:31:53.449Z,7.90
2023-02-22T09:36:44.553Z,8.00
2023-02-22T09:41:36.167Z,8.10
2023-02-22T09:46:26.490Z,8.50
2023-02-22T09:51:18.299Z,8.70
2023-02-22T09:56:08.878Z,9.00
2023-02-22T10:01:00.077Z,8.90
2023-02-22T10:05:51.073Z,8.90
2023-02-22T10:10:42.157Z,9.30
2023-02-22T10:15:32.919Z,9.50
2023-02-22T10:20:24.338Z,9.70
2023-02-22T10:23:48.268Z,10.30
2023-02-22T10:25:36.377Z,10.40
2023-02-22T10:26:20.349Z,10.50
2023-02-22T10:29:31.221Z,10.80
2023-02-22T10:33:54.931Z,11.10
2023-02-22T10:36:53.933Z,11.10
2023-02-22T10:41:45.245Z,11.10
2023-02-22T10:46:36.289Z,11.30
2023-02-22T10:51:29.593Z,11.70
2023-02-22T10:56:20.401Z,11.70
2023-02-22T11:01:11.849Z,11.90
2023-02-22T11:06:02.509Z,12.40
2023-02-22T11:10:53.903Z,12.60
2023-02-22T11:15:44.983Z,12.80
2023-02-22T11:20:38.578Z,13.20
2023-02-22T11:25:31.579Z,13.30
2023-02-22T11:30:23.078Z,13.30
2023-02-22T11:35:14.704Z,13.70
2023-02-22T11:40:05.973Z,13.80
2023-02-22T11:44:56.562Z,14.00
2023-02-22T11:49:50.125Z,14.10
2023-02-22T11:54:40.722Z,14.30
2023-02-22T11:59:31.779Z,14.40
2023-02-22T12:04:25.262Z,14.50
2023-02-22T12:11:04.194Z,14.50
2023-02-22T12:15:59.430Z,14.40
2023-02-22T12:20:50.812Z,14.30
2023-02-22T12:25:46.132Z,14.40
2023-02-22T12:30:41.733Z,14.60
2023-02-22T12:35:32.798Z,14.60
2023-02-22T12:40:23.815Z,14.80
2023-02-22T12:45:17.151Z,14.80
2023-02-22T12:50:15.944Z,14.90
2023-02-22T12:55:14.832Z,14.90
2023-02-22T13:00:07.582Z,15.10
2023-02-22T13:05:00.748Z,15.20
2023-02-22T13:10:00.814Z,15.30
2023-02-22T13:14:58.515Z,15.80
2023-02-22T13:19:58.315Z,15.60
2023-02-22T13:24:49.327Z,15.70
2023-02-22T13:29:44.886Z,16.00
2023-02-22T13:34:35.959Z,16.00
2023-02-22T13:39:29.330Z,16.40
2023-02-22T13:44:24.964Z,16.30
2023-02-22T13:49:17.834Z,16.50
2023-02-22T13:54:09.252Z,16.70
2023-02-22T13:59:02.221Z,16.50
2023-02-22T14:04:00.437Z,16.60
2023-02-22T14:08:56.080Z,16.50
2023-02-22T14:13:46.712Z,16.40
2023-02-22T14:18:40.046Z,16.40
2023-02-22T14:23:31.413Z,16.50
2023-02-22T14:28:22.493Z,16.60
2023-02-22T14:33:13.729Z,16.60
2023-02-22T14:38:11.020Z,16.60
2023-02-22T14:43:02.410Z,16.50
2023-02-22T14:47:53.173Z,16.60
2023-02-22T14:52:46.832Z,16.40
2023-02-22T14:57:37.901Z,16.20
2023-02-22T15:02:33.446Z,16.20
2023-02-22T15:07:24.193Z,16.00
2023-02-22T15:12:17.849Z,15.60
2023-02-22T15:17:15.655Z,15.80
2023-02-22T15:22:15.464Z,15.50
2023-02-22T15:27:06.852Z,15.60
2023-02-22T15:31:57.927Z,15.50
2023-02-22T15:36:48.681Z,15.40
2023-02-22T15:41:42.037Z,15.30
2023-02-22T15:46:35.428Z,15.30
2023-02-22T15:52:24.471Z,15.30
2023-02-22T15:57:17.541Z,15.20
2023-02-22T16:02:17.450Z,15.00
2023-02-22T16:07:12.885Z,14.90
2023-02-22T16:12:03.526Z,14.80
2023-02-22T16:42:30.072Z,14.20
2023-02-22T16:47:29.968Z,13.70
2023-02-22T16:52:23.472Z,13.20
2023-02-22T16:57:21.303Z,13.00
2023-02-22T17:02:18.948Z,12.70
2023-02-22T17:07:18.891Z,12.50
2023-02-22T17:12:28.013Z,12.40
2023-02-22T17:17:21.360Z,12.30
2023-02-22T17:22:18.952Z,12.10
2023-02-22T17:27:16.637Z,12.00
2023-02-22T17:33:03.664Z,11.90
2023-02-22T17:37:54.259Z,11.80
2023-02-22T17:42:50.782Z,11.70
2023-02-22T17:47:41.347Z,11.60
2023-02-22T17:52:32.425Z,11.60
2023-02-22T17:57:30.539Z,11.50
2023-02-22T18:02:28.402Z,11.30
2023-02-22T18:07:28.159Z,11.20
2023-02-22T18:12:24.093Z,11.10
2023-02-22T18:17:14.867Z,11.10
2023-02-22T18:22:05.912Z,11.00
2023-02-22T18:26:57.025Z,11.00
2023-02-22T18:31:48.613Z,10.90
2023-02-22T18:36:39.110Z,10.90
2023-02-22T18:41:30.716Z,10.70
2023-02-22T18:46:22.092Z,10.70
2023-02-22T18:51:13.014Z,10.60
2023-02-22T18:56:03.744Z,10.60
2023-02-22T19:00:55.004Z,10.50
2023-02-22T19:05:45.874Z,10.20
2023-02-22T19:10:37.287Z,10.00
2023-02-22T19:15:28.291Z,9.90
2023-02-22T19:20:19.341Z,9.80
2023-02-22T19:25:10.521Z,9.80
2023-02-22T19:30:01.691Z,9.80
2023-02-22T19:34:52.637Z,9.80
2023-02-22T19:39:43.347Z,9.80
2023-02-22T19:44:34.723Z,9.90
2023-02-22T19:54:16.878Z,10.00
2023-02-22T19:59:07.787Z,10.10
2023-02-22T20:03:59.068Z,10.10
2023-02-22T20:08:49.944Z,10.10
2023-02-22T20:13:40.857Z,10.10
2023-02-22T20:18:31.828Z,10.10
2023-02-22T20:23:23.217Z,10.00
2023-02-22T20:28:14.299Z,10.00
2023-02-22T20:33:05.348Z,10.00
2023-02-22T20:37:56.105Z,10.00
2023-02-22T20:42:47.706Z,13.00
2023-02-22T20:47:29.888Z,9.70
2023-02-22T20:52:21.033Z,9.70
2023-02-22T20:57:12.048Z,9.70
2023-02-22T21:02:03.438Z,9.70
2023-02-22T21:06:54.583Z,9.70
2023-02-22T21:11:45.320Z,9.50
2023-02-22T21:16:36.746Z,9.60
2023-02-22T21:21:27.749Z,9.50
2023-02-22T21:26:18.528Z,9.50
2023-02-22T21:31:09.910Z,9.50
2023-02-22T21:36:00.670Z,9.40
2023-02-22T21:40:52.108Z,9.40
2023-02-22T21:45:43.092Z,9.30
2023-02-22T21:50:34.179Z,9.30
2023-02-22T21:55:24.927Z,9.30
2023-02-22T22:00:16.267Z,9.30
2023-02-22T22:05:07.337Z,9.30
2023-02-22T22:09:58.405Z,9.30
2023-02-22T22:14:49.453Z,9.30
2023-02-22T22:19:40.707Z,9.40
2023-02-22T22:24:31.610Z,9.40
2023-02-22T22:29:22.697Z,9.40
2023-02-22T22:34:13.385Z,9.60
2023-02-22T22:39:04.687Z,9.50
2023-02-22T22:43:55.841Z,9.50
2023-02-22T22:48:47.370Z,9.50
2023-02-22T22:53:37.963Z,9.60
2023-02-22T22:58:28.930Z,9.60
2023-02-22T23:03:20.195Z,9.70
2023-02-22T23:08:10.834Z,9.80
2023-02-22T23:13:02.233Z,9.70
2023-02-22T23:17:53.323Z,9.70
2023-02-22T23:22:44.365Z,9.60
2023-02-22T23:27:35.426Z,9.20
2023-02-22T23:32:26.220Z,9.60
2023-02-22T23:37:17.542Z,9.60
2023-02-22T23:42:08.806Z,9.60
2023-02-22T23:46:59.696Z,9.60
2023-02-22T23:51:50.407Z,9.60
2023-02-22T23:56:41.811Z,9.70
